Sangzhi, China
Current Conditions -  °F | °C
As of 8:00 PM on Monday 22 Dec 2014 (Local Time) from ZGHA Reporting Station
Clear Clear  
Wind Chill: 42°   Ceiling: Unl
Heat Index: 45°   Visibility: 6mi
Dew Point: 23°   Wind: 4mph
Humidity: 43%   Direction: 120°ESE
Pressure: 30.21"   Gusts: NA
Location:  29.4°N, 110.17°E
Report Text: ZGHA 221200Z 12002MPS 9000 NSC 07/M05 Q1023 NOSIG
Loading
Personal Weather Stations






























Interactive Weather Map New forecast layout! Learn more

10-Day Weather Forecast

Advertisements
Track Severe Weather on mobile